Kanoya, Kanoya Air Field (RJFY)

NameKanoya Air Field
CityKanoya
CountryJapan
ICAORJFY
IATA
Altitude65 m
CoordinatesGoogle Map
Live Air TrafficLiveATC.net
METARRJFY 261047Z 06004KT 030V090 9999 FEW030 BKN040 BKN230 16/11 Q1018 RMK 2CU030 5SC040 A3006
2020-02-26 10:47:00 Wind: Northeast (60°) 2.06 m/s - Visibility: > 10000 m - Temperature: 16 °C - Dew point: 11 °C - Humidity: 72.4% - Pressure: 1018 hPa

Sorry, no flights used the airport in this database.